Las Vegas, Nevada (DRI) Weather observations

Data are for observation ending at time listed.
 Day   Time    Ave.   Ave.  Ave.  Vector   Max.   Stn.    Total    Solar   Ave.  
  of    of     Air    Rel.  Wind   Wind    Wind   Baro.  Precip.   Rad.    Soil  
Year   Day     Temp.  Hum.  Speed  Dir.    Gust   Pres.                    Temp. 
2014   (PST)    F      %     mph   deg.    mph     mb.     in.     W/m2     F   
------------------------------------------------------------------------------
 259   14:20  103.2    21    1.7     8      5.4   937.8    0.00     351    95.6
 259   14:30  101.5    22    1.4   169      4.8   937.6    0.00     228    95.8
 259   14:40  100.3    23    2.1   166      7.2   937.5    0.00     127    96.2
 259   14:50  100.1    23    0.9    60      2.6   937.5    0.00     143    96.4
 259   15:00  100.0    23    1.1    24      4.1   937.5    0.00     134    96.7
 259   15:10   99.4    23    1.1   114      4.5   937.4    0.00     131    97.0
 259   15:20   98.9    24    1.8   191      5.6   937.2    0.00     150    97.2
 259   15:30   99.4    24    1.1    54      3.3   937.2    0.00     167    97.4
 259   15:40   98.9    25    2.2   187      6.4   937.2    0.00     173    97.6
 259   15:50   98.7    25    1.0   190      3.9   937.1    0.00     167    97.8
 259   16:00   99.2    24    0.9   178      3.3   937.2    0.00     181    98.0
 259   16:10   99.8    24    1.3   191      4.2   937.2    0.00     284    98.2
 259   16:20  100.2    24    0.7   176      3.7   937.3    0.00     232    98.3
 259   16:30  100.7    24    1.3   170      3.9   937.2    0.00     188    98.4
 259   16:40   99.8    25    0.8   184      2.9   937.2    0.00     159    98.4
 259   16:50   99.6    24    0.9    32      2.9   937.2    0.00      85    98.5
 259   17:00   98.9    25    0.7   208      3.1   937.2    0.00      66    98.6
 259   17:10   98.4    25    1.4   191      6.3   937.3    0.00      45    98.7
 259   17:20   97.8    26    0.3    18      1.6   937.3    0.00      23    98.8
 259   17:30   97.4    26    0.4   194      1.6   937.3    0.00      12    98.8
 259   17:40   97.0    26    0.9   208      5.4   937.4    0.00       8    98.9
 259   17:50   96.8    27    0.6   191      5.0   937.5    0.00       4    98.9
 259   18:00   96.5    28    0.1    22      1.5   937.7    0.00       2    98.9
 259   18:10   96.2    27    0.7   333      2.9   937.7    0.00       0    98.9
 259   18:20   96.0    27    0.7    12      2.3   937.8    0.00       0    98.9
 259   18:30   95.8    28    0.6   289      3.0   937.9    0.00       0    98.9
 259   18:40   95.5    27    4.3   173     10.2   938.0    0.00       0    98.9
 259   18:50   93.6    31   10.5   174     20.2   938.2    0.00       0    98.9
 259   19:00   90.9    34   10.7   174     21.6   938.4    0.00       0    98.8
 259   19:10   89.7    36    9.7   174     23.2   938.8    0.00       0    98.8
 259   19:20   88.6    37   10.7   173     21.9   938.9    0.00       0    98.7
 259   19:30   88.1    36   10.1   172     20.4   939.2    0.00       0    98.6
 259   19:40   87.7    37    8.7   171     18.2   939.4    0.00       0    98.5
 259   19:50   86.9    37    7.3   170     17.4   939.6    0.00       0    98.5
 259   20:00   87.0    36    9.8   173     21.4   939.7    0.00       0    98.4
 259   20:10   87.9    32   10.7   173     18.9   939.9    0.00       1    98.3
 259   20:20   87.8    31    5.6   173     15.8   940.3    0.00       1    98.2
 259   20:30   87.7    31    3.6   179      8.6   940.8    0.00       1    98.1
 259   20:40   87.7    31    2.2   182      5.6   941.1    0.00       1    98.0
 259   20:50   87.5    31    3.5   190      9.9   941.1    0.00       1    97.9
 259   21:00   87.5    31    2.1    98      6.6   941.3    0.00       2    97.8
 259   21:10   87.4    31    2.2   175      5.0   941.4    0.00       1    97.7
 259   21:20   87.4    32    0.5   175      3.8   941.4    0.00       0    97.6
 259   21:30   87.0    32    1.7   179      5.0   941.4    0.00       1    97.6
 259   21:40   87.1    32    1.0   168      4.1   941.4    0.00       2    97.5
 259   21:50   86.7    33    1.0   207      3.7   941.5    0.00       2    97.4
 259   22:00   86.4    33    2.8   201      4.7   941.4    0.00       2    97.3
 259   22:10   86.2    34    3.7   189      7.8   941.2    0.00       1    97.2
 259   22:20   86.2    33    4.0   178      7.5   941.2    0.00       1    97.1
 259   22:30   86.4    32    2.3   192      5.8   941.2    0.00       1    97.0
 259   22:40   86.3    33    2.7   196      4.9   941.2    0.00       2    96.9
 259   22:50   86.2    33    1.8   192      4.4   941.0    0.00       2    96.8
 259   23:00   86.2    33    1.4   192      4.7   940.9    0.00       2    96.7
 259   23:10   86.1    33    1.6   200      2.9   940.8    0.00       1    96.6
 259   23:20   86.1    33    1.4   207      3.6   940.7    0.00       1    96.5
 259   23:30   86.1    33    1.5   191      3.8   940.6    0.00       1    96.4
 259   23:40   86.1    33    0.7   234      2.9   940.4    0.00       2    96.3
 259   23:50   86.2    33    0.9   239      3.1   940.3    0.00       2    96.2
 260    0:00   86.2    33    1.1   210      3.4   940.0    0.00       1    96.1
 260    0:10   86.2    33    0.7   248      2.7   940.0    0.00       2    96.0
 260    0:20   86.3    33    0.5   324      3.0   939.9    0.00       1    95.9
 260    0:30   86.5    33    1.8   329      3.5   939.7    0.00       2    95.8
 260    0:40   86.0    34    1.4   359      3.1   939.5    0.00       2    95.7
 260    0:50   86.0    34    1.6   340      4.2   939.2    0.00       2    95.6
 260    1:00   85.7    34    0.7    23      2.0   939.2    0.00       1    95.5
 260    1:10   85.3    34    0.8    60      2.3   939.3    0.00       1    95.4
 260    1:20   84.0    37    0.8    61      3.5   939.2    0.00       2    95.4
 260    1:30   83.4    38    0.9    62      2.8   939.3    0.00       2    95.3
 260    1:40   83.2    38    1.0    45      3.9   939.4    0.00       2    95.2
 260    1:50   83.0    38    0.9    19      2.6   939.5    0.00       2    95.1
 260    2:00   82.7    39    1.9    56      5.7   939.6    0.00       2    95.0
 260    2:10   82.3    40    0.8    11      2.9   939.5    0.00       1    95.0
 260    2:20   82.0    41    0.7   196      3.1   939.6    0.00       1    94.9
 260    2:30   81.3    43    0.9   188      2.9   939.5    0.00       0    94.8
 260    2:40   81.2    44    0.0   179      1.2   939.6    0.00       1    94.7
 260    2:50   81.1    45    0.0   203      0.4   939.6    0.00       1    94.6
 260    3:00   80.7    46    0.0     0      0.0   939.7    0.00       1    94.5
 260    3:10   80.5    47    0.0     0      0.0   939.7    0.00       1    94.5
 260    3:20   80.3    48    0.0   199      0.9   939.8    0.00       1    94.4
 260    3:30   80.5    47    0.0   176      0.7   939.9    0.00       1    94.3
 260    3:40   80.9    46    0.0     0      0.0   939.8    0.00       1    94.2
 260    3:50   81.0    46    0.0     0      0.0   939.8    0.00       0    94.1
 260    4:00   81.3    46    0.6    24      2.3   939.8    0.00       1    94.0
 260    4:10   81.2    45    0.0    62      1.0   939.9    0.00       1    93.9
 260    4:20   81.3    45    0.3    59      2.9   939.9    0.00       1    93.8
 260    4:30   81.2    44    0.2    56      1.8   940.0    0.00       1    93.7
 260    4:40   81.2    45    0.0    42      1.1   940.0    0.00       1    93.6
 260    4:50   80.7    46    0.0     0      0.0   940.0    0.00       1    93.5
 260    5:00   80.2    48    0.0     0      0.0   940.0    0.00       1    93.4
 260    5:10   80.0    48    0.0    34      0.4   940.0    0.00       1    93.3
 260    5:20   79.7    49    0.1   179      1.0   940.1    0.00       3    93.3
 260    5:30   79.5    50    0.0     0      0.0   940.2    0.00       4    93.2
 260    5:40   79.1    50    0.0     0      0.0   940.3    0.00       7    93.1
 260    5:50   79.1    50    0.0   180      0.1   940.4    0.00      11    93.0
 260    6:00   79.4    49    0.0     0      0.0   940.5    0.00      16    92.9
 260    6:10   79.6    48    0.1    66      1.3   940.6    0.00      18    92.8
 260    6:20   80.0    47    0.6     8      5.3   940.7    0.00      18    92.8
 260    6:30   80.5    46    0.8   352      3.7   940.8    0.00      18    92.7
 260    6:40   81.1    45    0.3    36      1.5   940.8    0.00      22    92.6
 260    6:50   81.5    44    0.7    24      2.8   940.8    0.00      25    92.5
 260    7:00   81.2    48    0.5    56      2.7   940.9    0.00      25    92.4
 260    7:10   81.2    48    0.7    32      3.3   940.9    0.00      25    92.3
 260    7:20   81.7    48    1.4    36      3.2   940.9    0.00      25    92.3
 260    7:30   81.8    48    0.6    53      2.3   941.0    0.00      25    92.2
 260    7:40   82.1    48    1.4    22      3.3   941.0    0.00      28    92.1
 260    7:50   82.2    47    0.4    52      2.3   941.0    0.00      32    92.0
 260    8:00   82.5    47    0.5    56      3.2   941.0    0.00      94    91.9
 260    8:10   82.8    47    0.6    47      3.4   941.1    0.00     171    91.8
 260    8:20   83.3    47    0.9    43      4.8   941.1    0.00     319    91.8
 260    8:30   83.6    47    0.8    22      3.3   941.1    0.00     382    91.7
 260    8:40   84.4    45    1.4    29      3.6   941.1    0.00     627    91.7
 260    8:50   85.0    44    1.1    48      5.2   941.0    0.00     628    91.6
 260    9:00   86.2    42    0.5    48      3.3   940.9    0.00     655    91.6
 260    9:10   86.7    41    0.9    45      3.3   940.8    0.00     682    91.5
 260    9:20   87.6    40    1.1    30      4.5   940.8    0.00     709    91.4
 260    9:30   87.7    40    2.4    25      4.6   940.8    0.00     732    91.3
 260    9:40   87.7    39    1.3    18      3.8   940.7    0.00     754    91.3
 260    9:50   89.2    37    1.0   153      4.1   940.6    0.00     775    91.2
 260   10:00   89.6    36    1.1    23      3.9   940.5    0.00     796    91.2
 260   10:10   90.1    35    1.2   213      3.5   940.4    0.00     813    91.1
 260   10:20   90.7    34    1.4    40      4.5   940.3    0.00     829    91.1
 260   10:30   90.7    34    1.6    62      4.7   940.3    0.00     845    91.0
 260   10:40   91.0    33    1.8   181      6.5   940.2    0.00     859    91.0
 260   10:50   91.0    33    1.8   224      5.7   940.2    0.00     868    91.0
 260   11:00   91.7    31    1.7   298      3.4   940.0    0.00     873    91.1
 260   11:10   92.8    30    1.5    26      6.1   939.9    0.00     881    91.1
 260   11:20   93.2    30    1.6   179      5.3   939.7    0.00     887    91.2
 260   11:30   93.4    29    2.6   184      6.4   939.6    0.00     891    91.3
 260   11:40   92.9    30    3.3   190      6.2   939.5    0.00     895    91.4
 260   11:50   93.6    29    1.5   179      4.4   939.4    0.00     889    91.5
 260   12:00   94.8    28    1.3   198      5.0   939.2    0.00     889    91.7
 260   12:10   95.0    28    2.3    48      6.5   939.1    0.00     887    91.9
 260   12:20   94.4    28    2.0    30      6.5   938.9    0.00     881    92.1
 260   12:30   95.6    27    2.0   201      6.8   938.7    0.00     873    92.3
 260   12:40   95.1    28    1.5   300      4.8   938.6    0.00     862    92.5
 260   12:50   96.0    28    2.0   115      7.5   938.5    0.00     852    92.7
 260   13:00   96.7    28    1.6   181      6.7   938.2    0.00     838    93.0
 260   13:10   97.4    27    1.5    44      4.6   938.0    0.00     822    93.2
 260   13:20   96.7    27    1.8   150      5.8   937.8    0.00     803    93.4
 260   13:30   97.1    27    1.6    28      4.2   937.6    0.00     784    93.7
 260   13:40   96.8    27    2.6    41      6.2   937.6    0.00     764    94.0
 260   13:50   97.3    26    1.6    31      5.1   937.4    0.00     746    94.2
 260   14:00   98.8    25    0.7    57      3.4   937.2    0.00     721    94.5
 260   14:10   99.3    24    1.7    59      6.0   937.1    0.00     697    94.8

Return to Las Vegas, Nevada graphs page.


Western Regional Climate Center,wrcc@dri.edu